sensor_id;sensor_type;location;lat;lon;timestamp;P1;durP1;ratioP1;P2;durP2;ratioP2
82876;SDS011;72655;47.596;7.658;2023-10-31T07:11:03;0.68;;;0.43;;
82876;SDS011;72655;47.596;7.658;2023-10-31T07:13:31;0.50;;;0.50;;
82876;SDS011;72655;47.596;7.658;2023-10-31T07:15:58;0.30;;;0.30;;
82876;SDS011;72655;47.596;7.658;2023-10-31T07:18:25;0.30;;;0.30;;
82876;SDS011;72655;47.596;7.658;2023-10-31T07:20:52;0.55;;;0.55;;
82876;SDS011;72655;47.596;7.658;2023-10-31T07:23:20;1.98;;;0.40;;
82876;SDS011;72655;47.596;7.658;2023-10-31T07:25:47;0.20;;;0.20;;
82876;SDS011;72655;47.596;7.658;2023-10-31T07:28:14;0.20;;;0.20;;
82876;SDS011;72655;47.596;7.658;2023-10-31T07:30:43;1.35;;;0.65;;
82876;SDS011;72655;47.596;7.658;2023-10-31T07:33:10;0.20;;;0.20;;
82876;SDS011;72655;47.596;7.658;2023-10-31T07:35:37;0.70;;;0.70;;
82876;SDS011;72655;47.596;7.658;2023-10-31T07:38:04;1.13;;;0.50;;
82876;SDS011;72655;47.596;7.658;2023-10-31T07:40:31;1.77;;;0.60;;
82876;SDS011;72655;47.596;7.658;2023-10-31T07:42:58;0.40;;;0.38;;
82876;SDS011;72655;47.596;7.658;2023-10-31T07:45:25;0.30;;;0.30;;
82876;SDS011;72655;47.596;7.658;2023-10-31T07:47:54;0.63;;;0.60;;
82876;SDS011;72655;47.596;7.658;2023-10-31T07:50:21;2.15;;;0.90;;
82876;SDS011;72655;47.596;7.658;2023-10-31T07:52:48;0.35;;;0.35;;
82876;SDS011;72655;47.596;7.658;2023-10-31T07:55:14;0.47;;;0.47;;
82876;SDS011;72655;47.596;7.658;2023-10-31T07:57:41;0.45;;;0.45;;
82876;SDS011;72655;47.596;7.658;2023-10-31T08:00:10;2.30;;;0.70;;
82876;SDS011;72655;47.596;7.658;2023-10-31T08:02:38;0.43;;;0.38;;
82876;SDS011;72655;47.596;7.658;2023-10-31T08:05:06;0.85;;;0.85;;
82876;SDS011;72655;47.596;7.658;2023-10-31T08:07:34;0.52;;;0.50;;
82876;SDS011;72655;47.596;7.658;2023-10-31T08:10:02;2.38;;;1.08;;
82876;SDS011;72655;47.596;7.658;2023-10-31T08:12:30;1.35;;;0.90;;
82876;SDS011;72655;47.596;7.658;2023-10-31T08:14:56;1.52;;;1.10;;
82876;SDS011;72655;47.596;7.658;2023-10-31T08:17:25;4.30;;;1.30;;
82876;SDS011;72655;47.596;7.658;2023-10-31T08:19:52;4.63;;;2.03;;
82876;SDS011;72655;47.596;7.658;2023-10-31T08:22:20;3.97;;;2.03;;
82876;SDS011;72655;47.596;7.658;2023-10-31T08:24:47;6.43;;;1.67;;
82876;SDS011;72655;47.596;7.658;2023-10-31T08:27:14;3.85;;;1.40;;
82876;SDS011;72655;47.596;7.658;2023-10-31T08:29:41;3.38;;;1.45;;
82876;SDS011;72655;47.596;7.658;2023-10-31T08:32:08;2.53;;;1.92;;
82876;SDS011;72655;47.596;7.658;2023-10-31T08:34:35;1.92;;;1.23;;
82876;SDS011;72655;47.596;7.658;2023-10-31T08:37:02;5.35;;;1.50;;
82876;SDS011;72655;47.596;7.658;2023-10-31T08:39:30;6.75;;;2.30;;
82876;SDS011;72655;47.596;7.658;2023-10-31T08:41:57;3.15;;;1.98;;
82876;SDS011;72655;47.596;7.658;2023-10-31T08:44:25;5.65;;;3.03;;
82876;SDS011;72655;47.596;7.658;2023-10-31T08:46:52;4.10;;;2.33;;
82876;SDS011;72655;47.596;7.658;2023-10-31T08:49:19;2.80;;;1.35;;
82876;SDS011;72655;47.596;7.658;2023-10-31T08:51:46;5.40;;;2.03;;
82876;SDS011;72655;47.596;7.658;2023-10-31T08:54:13;4.05;;;2.17;;
82876;SDS011;72655;47.596;7.658;2023-10-31T08:56:42;2.45;;;1.55;;
82876;SDS011;72655;47.596;7.658;2023-10-31T08:59:08;2.63;;;1.45;;
82876;SDS011;72655;47.596;7.658;2023-10-31T09:01:35;1.88;;;1.30;;
82876;SDS011;72655;47.596;7.658;2023-10-31T09:04:02;1.05;;;0.68;;
82876;SDS011;72655;47.596;7.658;2023-10-31T09:06:29;1.75;;;1.17;;
82876;SDS011;72655;47.596;7.658;2023-10-31T09:08:57;0.60;;;0.60;;
82876;SDS011;72655;47.596;7.658;2023-10-31T09:11:24;0.98;;;0.68;;
82876;SDS011;72655;47.596;7.658;2023-10-31T09:13:52;0.63;;;0.63;;
82876;SDS011;72655;47.596;7.658;2023-10-31T09:16:19;0.50;;;0.50;;
82876;SDS011;72655;47.596;7.658;2023-10-31T09:18:46;0.70;;;0.70;;
82876;SDS011;72655;47.596;7.658;2023-10-31T09:21:13;1.13;;;0.57;;
82876;SDS011;72655;47.596;7.658;2023-10-31T09:23:40;1.27;;;0.60;;
82876;SDS011;72655;47.596;7.658;2023-10-31T09:26:07;2.08;;;0.88;;
82876;SDS011;72655;47.596;7.658;2023-10-31T09:28:35;5.05;;;0.98;;
82876;SDS011;72655;47.596;7.658;2023-10-31T09:31:04;0.85;;;0.82;;
82876;SDS011;72655;47.596;7.658;2023-10-31T09:33:31;1.40;;;0.80;;
82876;SDS011;72655;47.596;7.658;2023-10-31T09:35:57;2.00;;;1.00;;
82876;SDS011;72655;47.596;7.658;2023-10-31T09:38:24;2.00;;;0.73;;
82876;SDS011;72655;47.596;7.658;2023-10-31T09:40:52;2.28;;;0.88;;
82876;SDS011;72655;47.596;7.658;2023-10-31T09:43:20;1.30;;;0.75;;
82876;SDS011;72655;47.596;7.658;2023-10-31T09:45:47;1.92;;;0.95;;
82876;SDS011;72655;47.596;7.658;2023-10-31T09:48:15;0.63;;;0.60;;
82876;SDS011;72655;47.596;7.658;2023-10-31T09:50:43;0.95;;;0.95;;
82876;SDS011;72655;47.596;7.658;2023-10-31T09:53:11;0.60;;;0.60;;
82876;SDS011;72655;47.596;7.658;2023-10-31T09:55:40;1.75;;;0.60;;
82876;SDS011;72655;47.596;7.658;2023-10-31T09:58:07;0.35;;;0.28;;
82876;SDS011;72655;47.596;7.658;2023-10-31T10:00:34;0.75;;;0.60;;
82876;SDS011;72655;47.596;7.658;2023-10-31T10:03:05;2.08;;;0.60;;
82876;SDS011;72655;47.596;7.658;2023-10-31T10:05:35;1.08;;;0.52;;
82876;SDS011;72655;47.596;7.658;2023-10-31T10:08:03;0.98;;;0.40;;
82876;SDS011;72655;47.596;7.658;2023-10-31T10:10:30;0.40;;;0.40;;
82876;SDS011;72655;47.596;7.658;2023-10-31T10:12:57;0.85;;;0.40;;
82876;SDS011;72655;47.596;7.658;2023-10-31T10:15:27;1.65;;;0.60;;
82876;SDS011;72655;47.596;7.658;2023-10-31T10:17:54;0.40;;;0.40;;
82876;SDS011;72655;47.596;7.658;2023-10-31T10:20:21;0.22;;;0.22;;
82876;SDS011;72655;47.596;7.658;2023-10-31T10:22:50;0.63;;;0.40;;
82876;SDS011;72655;47.596;7.658;2023-10-31T10:25:17;0.70;;;0.43;;
82876;SDS011;72655;47.596;7.658;2023-10-31T10:27:44;0.35;;;0.35;;
82876;SDS011;72655;47.596;7.658;2023-10-31T10:30:12;0.20;;;0.20;;
82876;SDS011;72655;47.596;7.658;2023-10-31T10:32:40;0.30;;;0.30;;
82876;SDS011;72655;47.596;7.658;2023-10-31T10:35:07;0.30;;;0.30;;
82876;SDS011;72655;47.596;7.658;2023-10-31T10:37:35;1.08;;;0.40;;
82876;SDS011;72655;47.596;7.658;2023-10-31T10:40:07;0.20;;;0.20;;
82876;SDS011;72655;47.596;7.658;2023-10-31T10:42:41;0.38;;;0.38;;
82876;SDS011;72655;47.596;7.658;2023-10-31T10:45:13;0.30;;;0.30;;
82876;SDS011;72655;47.596;7.658;2023-10-31T10:47:44;0.20;;;0.20;;
82876;SDS011;72655;47.596;7.658;2023-10-31T10:50:13;0.43;;;0.43;;
82876;SDS011;72655;47.596;7.658;2023-10-31T10:52:41;2.45;;;0.52;;
82876;SDS011;72655;47.596;7.658;2023-10-31T10:55:17;0.25;;;0.25;;
82876;SDS011;72655;47.596;7.658;2023-10-31T10:57:48;0.25;;;0.25;;
82876;SDS011;72655;47.596;7.658;2023-10-31T11:00:22;0.88;;;0.40;;
82876;SDS011;72655;47.596;7.658;2023-10-31T11:02:50;0.60;;;0.45;;
82876;SDS011;72655;47.596;7.658;2023-10-31T11:05:18;0.28;;;0.28;;
82876;SDS011;72655;47.596;7.658;2023-10-31T11:07:46;0.22;;;0.22;;
82876;SDS011;72655;47.596;7.658;2023-10-31T11:10:16;0.22;;;0.22;;
82876;SDS011;72655;47.596;7.658;2023-10-31T11:12:43;0.30;;;0.30;;
82876;SDS011;72655;47.596;7.658;2023-10-31T11:15:11;0.20;;;0.20;;
82876;SDS011;72655;47.596;7.658;2023-10-31T11:17:41;0.30;;;0.30;;
82876;SDS011;72655;47.596;7.658;2023-10-31T11:20:11;0.30;;;0.30;;
82876;SDS011;72655;47.596;7.658;2023-10-31T11:22:40;0.45;;;0.45;;
82876;SDS011;72655;47.596;7.658;2023-10-31T11:25:09;0.20;;;0.20;;
82876;SDS011;72655;47.596;7.658;2023-10-31T11:27:38;0.20;;;0.20;;
82876;SDS011;72655;47.596;7.658;2023-10-31T11:30:09;0.43;;;0.30;;
82876;SDS011;72655;47.596;7.658;2023-10-31T11:32:47;0.15;;;0.15;;
82876;SDS011;72655;47.596;7.658;2023-10-31T11:35:15;0.30;;;0.30;;
82876;SDS011;72655;47.596;7.658;2023-10-31T11:37:42;0.15;;;0.15;;
82876;SDS011;72655;47.596;7.658;2023-10-31T11:40:16;0.20;;;0.20;;
82876;SDS011;72655;47.596;7.658;2023-10-31T11:42:49;0.20;;;0.20;;
82876;SDS011;72655;47.596;7.658;2023-10-31T11:45:25;1.30;;;1.25;;
82876;SDS011;72655;47.596;7.658;2023-10-31T11:47:54;0.13;;;0.13;;
82876;SDS011;72655;47.596;7.658;2023-10-31T11:50:21;0.20;;;0.20;;
82876;SDS011;72655;47.596;7.658;2023-10-31T11:52:59;0.20;;;0.20;;
82876;SDS011;72655;47.596;7.658;2023-10-31T11:55:27;0.20;;;0.20;;
82876;SDS011;72655;47.596;7.658;2023-10-31T11:57:56;0.25;;;0.25;;
82876;SDS011;72655;47.596;7.658;2023-10-31T12:00:23;0.20;;;0.20;;
82876;SDS011;72655;47.596;7.658;2023-10-31T12:02:57;0.20;;;0.20;;
82876;SDS011;72655;47.596;7.658;2023-10-31T12:05:24;0.17;;;0.17;;
82876;SDS011;72655;47.596;7.658;2023-10-31T12:07:51;0.47;;;0.40;;
82876;SDS011;72655;47.596;7.658;2023-10-31T12:10:21;0.65;;;0.55;;
82876;SDS011;72655;47.596;7.658;2023-10-31T12:12:49;0.52;;;0.30;;
82876;SDS011;72655;47.596;7.658;2023-10-31T12:15:18;0.20;;;0.20;;
82876;SDS011;72655;47.596;7.658;2023-10-31T12:17:45;0.20;;;0.20;;
82876;SDS011;72655;47.596;7.658;2023-10-31T12:20:12;0.20;;;0.20;;
82876;SDS011;72655;47.596;7.658;2023-10-31T12:22:39;0.20;;;0.20;;
82876;SDS011;72655;47.596;7.658;2023-10-31T12:25:07;0.10;;;0.10;;
82876;SDS011;72655;47.596;7.658;2023-10-31T12:27:44;0.20;;;0.20;;
82876;SDS011;72655;47.596;7.658;2023-10-31T12:30:13;0.20;;;0.20;;
82876;SDS011;72655;47.596;7.658;2023-10-31T12:32:43;0.20;;;0.20;;
82876;SDS011;72655;47.596;7.658;2023-10-31T12:35:12;1.88;;;0.40;;
82876;SDS011;72655;47.596;7.658;2023-10-31T12:37:43;0.95;;;0.35;;
82876;SDS011;72655;47.596;7.658;2023-10-31T12:40:11;0.40;;;0.40;;
82876;SDS011;72655;47.596;7.658;2023-10-31T12:42:40;0.20;;;0.20;;
82876;SDS011;72655;47.596;7.658;2023-10-31T12:45:09;0.20;;;0.20;;
82876;SDS011;72655;47.596;7.658;2023-10-31T12:47:36;2.83;;;0.20;;
82876;SDS011;72655;47.596;7.658;2023-10-31T12:50:08;0.25;;;0.25;;
82876;SDS011;72655;47.596;7.658;2023-10-31T12:52:48;0.30;;;0.30;;
82876;SDS011;72655;47.596;7.658;2023-10-31T12:55:16;0.35;;;0.30;;
82876;SDS011;72655;47.596;7.658;2023-10-31T12:57:44;0.25;;;0.25;;
82876;SDS011;72655;47.596;7.658;2023-10-31T13:00:12;0.13;;;0.13;;
82876;SDS011;72655;47.596;7.658;2023-10-31T13:02:42;0.38;;;0.38;;
82876;SDS011;72655;47.596;7.658;2023-10-31T13:05:14;3.83;;;1.33;;
82876;SDS011;72655;47.596;7.658;2023-10-31T13:07:47;0.20;;;0.20;;
82876;SDS011;72655;47.596;7.658;2023-10-31T13:10:15;0.20;;;0.20;;
82876;SDS011;72655;47.596;7.658;2023-10-31T13:12:43;0.20;;;0.20;;
82876;SDS011;72655;47.596;7.658;2023-10-31T13:15:11;0.20;;;0.20;;
82876;SDS011;72655;47.596;7.658;2023-10-31T13:17:38;0.40;;;0.40;;
82876;SDS011;72655;47.596;7.658;2023-10-31T13:20:07;0.57;;;0.57;;
82876;SDS011;72655;47.596;7.658;2023-10-31T13:22:36;0.20;;;0.20;;
82876;SDS011;72655;47.596;7.658;2023-10-31T13:25:04;0.20;;;0.20;;
82876;SDS011;72655;47.596;7.658;2023-10-31T13:27:33;0.28;;;0.28;;
82876;SDS011;72655;47.596;7.658;2023-10-31T13:30:00;0.22;;;0.22;;
82876;SDS011;72655;47.596;7.658;2023-10-31T13:32:27;0.25;;;0.25;;
82876;SDS011;72655;47.596;7.658;2023-10-31T13:34:54;0.20;;;0.20;;
82876;SDS011;72655;47.596;7.658;2023-10-31T13:37:21;0.28;;;0.28;;
82876;SDS011;72655;47.596;7.658;2023-10-31T13:39:49;0.55;;;0.30;;
82876;SDS011;72655;47.596;7.658;2023-10-31T13:42:16;0.17;;;0.17;;
82876;SDS011;72655;47.596;7.658;2023-10-31T13:44:43;0.17;;;0.17;;
82876;SDS011;72655;47.596;7.658;2023-10-31T13:47:10;0.10;;;0.10;;
82876;SDS011;72655;47.596;7.658;2023-10-31T13:49:37;0.10;;;0.10;;
82876;SDS011;72655;47.596;7.658;2023-10-31T13:52:05;0.20;;;0.20;;
82876;SDS011;72655;47.596;7.658;2023-10-31T13:54:32;0.32;;;0.30;;
82876;SDS011;72655;47.596;7.658;2023-10-31T13:57:00;0.20;;;0.17;;
82876;SDS011;72655;47.596;7.658;2023-10-31T13:59:28;0.10;;;0.10;;
82876;SDS011;72655;47.596;7.658;2023-10-31T14:01:56;0.10;;;0.10;;
82876;SDS011;72655;47.596;7.658;2023-10-31T14:04:24;0.20;;;0.20;;
82876;SDS011;72655;47.596;7.658;2023-10-31T14:06:51;0.20;;;0.10;;
82876;SDS011;72655;47.596;7.658;2023-10-31T14:09:18;0.22;;;0.22;;
82876;SDS011;72655;47.596;7.658;2023-10-31T14:11:46;0.10;;;0.10;;
82876;SDS011;72655;47.596;7.658;2023-10-31T14:14:14;0.20;;;0.20;;
82876;SDS011;72655;47.596;7.658;2023-10-31T14:16:41;0.13;;;0.13;;
82876;SDS011;72655;47.596;7.658;2023-10-31T14:19:09;0.17;;;0.17;;
82876;SDS011;72655;47.596;7.658;2023-10-31T14:21:37;0.40;;;0.40;;
82876;SDS011;72655;47.596;7.658;2023-10-31T14:24:05;0.20;;;0.20;;
82876;SDS011;72655;47.596;7.658;2023-10-31T14:26:33;0.30;;;0.30;;
82876;SDS011;72655;47.596;7.658;2023-10-31T14:29:01;0.10;;;0.10;;
82876;SDS011;72655;47.596;7.658;2023-10-31T14:31:30;0.20;;;0.20;;
82876;SDS011;72655;47.596;7.658;2023-10-31T14:33:57;0.20;;;0.20;;
82876;SDS011;72655;47.596;7.658;2023-10-31T14:36:24;0.10;;;0.10;;
82876;SDS011;72655;47.596;7.658;2023-10-31T14:38:51;0.20;;;0.20;;
82876;SDS011;72655;47.596;7.658;2023-10-31T14:41:18;0.20;;;0.20;;
82876;SDS011;72655;47.596;7.658;2023-10-31T14:43:45;0.17;;;0.17;;
82876;SDS011;72655;47.596;7.658;2023-10-31T14:46:12;0.73;;;0.25;;
82876;SDS011;72655;47.596;7.658;2023-10-31T14:48:41;0.22;;;0.22;;
82876;SDS011;72655;47.596;7.658;2023-10-31T14:51:08;0.17;;;0.17;;
82876;SDS011;72655;47.596;7.658;2023-10-31T14:53:34;0.20;;;0.20;;
82876;SDS011;72655;47.596;7.658;2023-10-31T14:56:01;0.13;;;0.13;;
82876;SDS011;72655;47.596;7.658;2023-10-31T14:58:31;0.20;;;0.20;;
82876;SDS011;72655;47.596;7.658;2023-10-31T15:00:57;1.45;;;0.20;;
82876;SDS011;72655;47.596;7.658;2023-10-31T15:03:25;0.10;;;0.10;;
82876;SDS011;72655;47.596;7.658;2023-10-31T15:05:53;0.10;;;0.10;;
82876;SDS011;72655;47.596;7.658;2023-10-31T15:08:20;0.10;;;0.10;;
82876;SDS011;72655;47.596;7.658;2023-10-31T15:10:47;0.20;;;0.20;;
82876;SDS011;72655;47.596;7.658;2023-10-31T15:13:14;0.30;;;0.30;;
82876;SDS011;72655;47.596;7.658;2023-10-31T15:15:41;0.20;;;0.20;;
82876;SDS011;72655;47.596;7.658;2023-10-31T15:18:08;0.20;;;0.20;;
82876;SDS011;72655;47.596;7.658;2023-10-31T15:20:35;0.20;;;0.20;;
82876;SDS011;72655;47.596;7.658;2023-10-31T15:23:04;0.30;;;0.20;;
82876;SDS011;72655;47.596;7.658;2023-10-31T15:25:30;0.10;;;0.10;;
82876;SDS011;72655;47.596;7.658;2023-10-31T15:27:57;0.20;;;0.20;;
82876;SDS011;72655;47.596;7.658;2023-10-31T15:30:24;0.30;;;0.20;;
82876;SDS011;72655;47.596;7.658;2023-10-31T15:32:51;0.10;;;0.10;;
82876;SDS011;72655;47.596;7.658;2023-10-31T15:35:18;0.20;;;0.20;;
82876;SDS011;72655;47.596;7.658;2023-10-31T15:37:45;0.20;;;0.20;;
82876;SDS011;72655;47.596;7.658;2023-10-31T15:40:15;1.25;;;0.30;;
82876;SDS011;72655;47.596;7.658;2023-10-31T15:42:42;0.20;;;0.20;;
82876;SDS011;72655;47.596;7.658;2023-10-31T15:45:10;0.20;;;0.20;;
82876;SDS011;72655;47.596;7.658;2023-10-31T15:47:37;0.30;;;0.30;;
82876;SDS011;72655;47.596;7.658;2023-10-31T15:50:04;0.20;;;0.20;;
82876;SDS011;72655;47.596;7.658;2023-10-31T15:52:32;0.20;;;0.20;;
82876;SDS011;72655;47.596;7.658;2023-10-31T15:54:59;0.30;;;0.30;;
82876;SDS011;72655;47.596;7.658;2023-10-31T15:57:28;0.20;;;0.20;;
82876;SDS011;72655;47.596;7.658;2023-10-31T15:59:55;0.20;;;0.20;;
82876;SDS011;72655;47.596;7.658;2023-10-31T16:02:22;0.20;;;0.20;;
82876;SDS011;72655;47.596;7.658;2023-10-31T16:04:49;0.30;;;0.20;;
82876;SDS011;72655;47.596;7.658;2023-10-31T16:07:16;0.28;;;0.28;;
82876;SDS011;72655;47.596;7.658;2023-10-31T16:09:42;0.28;;;0.28;;
82876;SDS011;72655;47.596;7.658;2023-10-31T16:12:09;0.20;;;0.20;;
82876;SDS011;72655;47.596;7.658;2023-10-31T16:14:38;0.30;;;0.30;;
82876;SDS011;72655;47.596;7.658;2023-10-31T16:17:05;0.20;;;0.20;;
82876;SDS011;72655;47.596;7.658;2023-10-31T16:19:32;0.45;;;0.30;;
82876;SDS011;72655;47.596;7.658;2023-10-31T16:21:59;0.30;;;0.30;;
82876;SDS011;72655;47.596;7.658;2023-10-31T16:24:27;0.20;;;0.20;;
82876;SDS011;72655;47.596;7.658;2023-10-31T16:26:54;0.28;;;0.22;;
82876;SDS011;72655;47.596;7.658;2023-10-31T16:29:21;0.20;;;0.20;;
82876;SDS011;72655;47.596;7.658;2023-10-31T16:31:49;0.20;;;0.20;;
82876;SDS011;72655;47.596;7.658;2023-10-31T16:34:17;0.30;;;0.30;;
82876;SDS011;72655;47.596;7.658;2023-10-31T16:36:44;0.30;;;0.30;;
82876;SDS011;72655;47.596;7.658;2023-10-31T16:39:11;0.28;;;0.28;;
82876;SDS011;72655;47.596;7.658;2023-10-31T16:41:38;0.20;;;0.20;;
82876;SDS011;72655;47.596;7.658;2023-10-31T16:44:05;0.30;;;0.30;;
82876;SDS011;72655;47.596;7.658;2023-10-31T16:46:33;0.20;;;0.20;;
82876;SDS011;72655;47.596;7.658;2023-10-31T16:49:01;0.30;;;0.28;;
82876;SDS011;72655;47.596;7.658;2023-10-31T16:51:28;0.40;;;0.40;;
82876;SDS011;72655;47.596;7.658;2023-10-31T16:53:55;0.20;;;0.20;;
82876;SDS011;72655;47.596;7.658;2023-10-31T16:56:23;0.22;;;0.22;;
82876;SDS011;72655;47.596;7.658;2023-10-31T16:58:50;0.30;;;0.30;;
82876;SDS011;72655;47.596;7.658;2023-10-31T17:01:17;0.30;;;0.30;;
82876;SDS011;72655;47.596;7.658;2023-10-31T17:03:44;0.75;;;0.50;;
82876;SDS011;72655;47.596;7.658;2023-10-31T17:06:12;0.30;;;0.30;;
82876;SDS011;72655;47.596;7.658;2023-10-31T17:08:39;0.40;;;0.40;;
82876;SDS011;72655;47.596;7.658;2023-10-31T17:11:06;0.32;;;0.32;;
82876;SDS011;72655;47.596;7.658;2023-10-31T17:13:34;0.30;;;0.30;;
82876;SDS011;72655;47.596;7.658;2023-10-31T17:16:02;1.45;;;0.35;;
82876;SDS011;72655;47.596;7.658;2023-10-31T17:18:30;0.30;;;0.30;;
82876;SDS011;72655;47.596;7.658;2023-10-31T17:20:57;0.20;;;0.20;;
82876;SDS011;72655;47.596;7.658;2023-10-31T17:23:26;0.40;;;0.40;;
82876;SDS011;72655;47.596;7.658;2023-10-31T17:25:55;0.25;;;0.25;;
82876;SDS011;72655;47.596;7.658;2023-10-31T17:28:22;0.22;;;0.22;;
82876;SDS011;72655;47.596;7.658;2023-10-31T17:30:49;0.30;;;0.30;;
82876;SDS011;72655;47.596;7.658;2023-10-31T17:33:16;0.20;;;0.20;;
82876;SDS011;72655;47.596;7.658;2023-10-31T17:35:43;0.38;;;0.38;;
82876;SDS011;72655;47.596;7.658;2023-10-31T17:38:10;0.30;;;0.30;;
82876;SDS011;72655;47.596;7.658;2023-10-31T17:40:38;1.25;;;0.35;;
82876;SDS011;72655;47.596;7.658;2023-10-31T17:43:05;0.20;;;0.20;;
82876;SDS011;72655;47.596;7.658;2023-10-31T17:45:32;0.30;;;0.30;;
82876;SDS011;72655;47.596;7.658;2023-10-31T17:47:59;1.23;;;0.20;;
82876;SDS011;72655;47.596;7.658;2023-10-31T17:50:26;0.20;;;0.20;;
82876;SDS011;72655;47.596;7.658;2023-10-31T17:52:57;0.30;;;0.30;;
82876;SDS011;72655;47.596;7.658;2023-10-31T17:55:24;0.45;;;0.30;;
82876;SDS011;72655;47.596;7.658;2023-10-31T17:57:52;0.38;;;0.20;;
82876;SDS011;72655;47.596;7.658;2023-10-31T18:00:19;0.25;;;0.25;;
82876;SDS011;72655;47.596;7.658;2023-10-31T18:02:47;0.50;;;0.43;;
82876;SDS011;72655;47.596;7.658;2023-10-31T18:05:14;0.30;;;0.30;;
82876;SDS011;72655;47.596;7.658;2023-10-31T18:07:41;0.25;;;0.25;;
82876;SDS011;72655;47.596;7.658;2023-10-31T18:10:09;0.25;;;0.25;;
82876;SDS011;72655;47.596;7.658;2023-10-31T18:12:36;0.22;;;0.22;;
82876;SDS011;72655;47.596;7.658;2023-10-31T18:15:05;0.45;;;0.35;;
82876;SDS011;72655;47.596;7.658;2023-10-31T18:17:33;0.30;;;0.28;;
82876;SDS011;72655;47.596;7.658;2023-10-31T18:20:00;0.88;;;0.88;;
82876;SDS011;72655;47.596;7.658;2023-10-31T18:22:27;0.35;;;0.35;;
82876;SDS011;72655;47.596;7.658;2023-10-31T18:24:54;0.40;;;0.40;;
82876;SDS011;72655;47.596;7.658;2023-10-31T18:27:21;0.52;;;0.40;;
82876;SDS011;72655;47.596;7.658;2023-10-31T18:29:50;0.70;;;0.65;;
82876;SDS011;72655;47.596;7.658;2023-10-31T18:32:18;0.65;;;0.65;;
82876;SDS011;72655;47.596;7.658;2023-10-31T18:34:46;0.40;;;0.30;;
82876;SDS011;72655;47.596;7.658;2023-10-31T18:37:13;0.30;;;0.30;;
82876;SDS011;72655;47.596;7.658;2023-10-31T18:39:40;0.80;;;0.30;;
82876;SDS011;72655;47.596;7.658;2023-10-31T18:42:08;0.30;;;0.30;;
